Aline, Georgia
Current Conditions -  °F | °C
As of 10:15 PM on Monday 20 Oct 2014 (Local Time) from KVDI Reporting Station
Overcast Overcast  
Wind Chill: 66°   Ceiling: 4200
Heat Index: 66°   Visibility: 10mi
Dew Point: 61°   Wind: 0mph
Humidity: 83%   Direction: NA
Pressure: 30.02"   Gusts: NA
Location:  32.2572°N, 82.1288°W
Report Text: KVDI 210215Z AUTO 00000KT 10SM BKN042 OVC050 19/16 A3002 RMK AO2
Loading
Personal Weather Stations






























Interactive Weather Map New forecast layout! Learn more

10-Day Weather Forecast

Advertisements
Track Severe Weather on mobile